sensor_id;sensor_type;location;lat;lon;timestamp;P1;durP1;ratioP1;P2;durP2;ratioP2
55833;SDS011;41761;43.004;-0.066;2022-08-19T00:02:24;11.63;;;4.07;;
55833;SDS011;41761;43.004;-0.066;2022-08-19T00:04:50;14.63;;;4.07;;
55833;SDS011;41761;43.004;-0.066;2022-08-19T00:07:20;9.55;;;3.58;;
55833;SDS011;41761;43.004;-0.066;2022-08-19T00:09:46;13.05;;;3.65;;
55833;SDS011;41761;43.004;-0.066;2022-08-19T00:12:13;11.45;;;3.50;;
55833;SDS011;41761;43.004;-0.066;2022-08-19T00:14:40;13.45;;;3.78;;
55833;SDS011;41761;43.004;-0.066;2022-08-19T00:17:06;12.20;;;3.22;;
55833;SDS011;41761;43.004;-0.066;2022-08-19T00:19:33;9.18;;;3.40;;
55833;SDS011;41761;43.004;-0.066;2022-08-19T00:22:00;14.82;;;4.65;;
55833;SDS011;41761;43.004;-0.066;2022-08-19T00:24:27;10.40;;;4.20;;
55833;SDS011;41761;43.004;-0.066;2022-08-19T00:26:54;8.20;;;3.22;;
55833;SDS011;41761;43.004;-0.066;2022-08-19T00:29:21;18.75;;;4.25;;
55833;SDS011;41761;43.004;-0.066;2022-08-19T00:31:48;9.05;;;3.67;;
55833;SDS011;41761;43.004;-0.066;2022-08-19T00:34:20;14.43;;;3.55;;
55833;SDS011;41761;43.004;-0.066;2022-08-19T00:36:46;11.75;;;3.30;;
55833;SDS011;41761;43.004;-0.066;2022-08-19T00:39:12;10.50;;;3.40;;
55833;SDS011;41761;43.004;-0.066;2022-08-19T00:41:39;8.05;;;2.92;;
55833;SDS011;41761;43.004;-0.066;2022-08-19T00:44:08;9.38;;;3.70;;
55833;SDS011;41761;43.004;-0.066;2022-08-19T00:46:35;9.13;;;3.28;;
55833;SDS011;41761;43.004;-0.066;2022-08-19T00:49:03;8.23;;;3.67;;
55833;SDS011;41761;43.004;-0.066;2022-08-19T00:51:32;13.55;;;3.58;;
55833;SDS011;41761;43.004;-0.066;2022-08-19T00:53:59;14.75;;;4.38;;
55833;SDS011;41761;43.004;-0.066;2022-08-19T00:56:26;12.23;;;3.70;;
55833;SDS011;41761;43.004;-0.066;2022-08-19T00:58:53;13.13;;;3.80;;
55833;SDS011;41761;43.004;-0.066;2022-08-19T01:01:20;10.45;;;3.88;;
55833;SDS011;41761;43.004;-0.066;2022-08-19T01:03:46;9.02;;;3.75;;
55833;SDS011;41761;43.004;-0.066;2022-08-19T01:06:13;13.50;;;3.47;;
55833;SDS011;41761;43.004;-0.066;2022-08-19T01:08:39;6.32;;;3.30;;
55833;SDS011;41761;43.004;-0.066;2022-08-19T01:11:05;15.73;;;4.32;;
55833;SDS011;41761;43.004;-0.066;2022-08-19T01:13:33;10.35;;;3.95;;
55833;SDS011;41761;43.004;-0.066;2022-08-19T01:16:08;13.75;;;4.10;;
55833;SDS011;41761;43.004;-0.066;2022-08-19T01:18:39;12.18;;;3.42;;
55833;SDS011;41761;43.004;-0.066;2022-08-19T01:21:10;15.38;;;3.53;;
55833;SDS011;41761;43.004;-0.066;2022-08-19T01:23:41;12.40;;;3.90;;
55833;SDS011;41761;43.004;-0.066;2022-08-19T01:26:14;9.63;;;3.33;;
55833;SDS011;41761;43.004;-0.066;2022-08-19T01:28:41;19.38;;;3.83;;
55833;SDS011;41761;43.004;-0.066;2022-08-19T01:31:10;15.50;;;3.30;;
55833;SDS011;41761;43.004;-0.066;2022-08-19T01:33:37;7.32;;;3.60;;
55833;SDS011;41761;43.004;-0.066;2022-08-19T01:36:15;16.20;;;4.05;;
55833;SDS011;41761;43.004;-0.066;2022-08-19T01:38:42;10.50;;;3.33;;
55833;SDS011;41761;43.004;-0.066;2022-08-19T01:41:11;9.70;;;3.45;;
55833;SDS011;41761;43.004;-0.066;2022-08-19T01:43:37;10.82;;;4.18;;
55833;SDS011;41761;43.004;-0.066;2022-08-19T01:46:03;10.45;;;3.95;;
55833;SDS011;41761;43.004;-0.066;2022-08-19T01:48:41;11.70;;;3.30;;
55833;SDS011;41761;43.004;-0.066;2022-08-19T01:51:07;7.75;;;3.28;;
55833;SDS011;41761;43.004;-0.066;2022-08-19T01:53:34;12.35;;;4.07;;
55833;SDS011;41761;43.004;-0.066;2022-08-19T01:56:00;11.43;;;3.70;;
55833;SDS011;41761;43.004;-0.066;2022-08-19T01:58:32;12.18;;;3.58;;
55833;SDS011;41761;43.004;-0.066;2022-08-19T02:01:01;7.60;;;3.40;;
55833;SDS011;41761;43.004;-0.066;2022-08-19T02:03:27;11.98;;;3.88;;
55833;SDS011;41761;43.004;-0.066;2022-08-19T02:05:57;7.57;;;3.40;;
55833;SDS011;41761;43.004;-0.066;2022-08-19T02:08:25;10.07;;;3.42;;
55833;SDS011;41761;43.004;-0.066;2022-08-19T02:10:51;9.75;;;2.97;;
55833;SDS011;41761;43.004;-0.066;2022-08-19T02:13:17;6.38;;;2.75;;
55833;SDS011;41761;43.004;-0.066;2022-08-19T02:15:43;5.15;;;2.38;;
55833;SDS011;41761;43.004;-0.066;2022-08-19T02:18:10;10.48;;;2.70;;
55833;SDS011;41761;43.004;-0.066;2022-08-19T02:20:37;4.82;;;2.50;;
55833;SDS011;41761;43.004;-0.066;2022-08-19T02:23:03;4.45;;;2.38;;
55833;SDS011;41761;43.004;-0.066;2022-08-19T02:25:30;4.03;;;2.08;;
55833;SDS011;41761;43.004;-0.066;2022-08-19T02:27:56;2.72;;;2.08;;
55833;SDS011;41761;43.004;-0.066;2022-08-19T02:30:22;2.47;;;1.90;;
55833;SDS011;41761;43.004;-0.066;2022-08-19T02:32:49;7.20;;;2.45;;
55833;SDS011;41761;43.004;-0.066;2022-08-19T02:35:16;4.35;;;2.53;;
55833;SDS011;41761;43.004;-0.066;2022-08-19T02:37:42;13.77;;;1.85;;
55833;SDS011;41761;43.004;-0.066;2022-08-19T02:40:29;3.35;;;1.90;;
55833;SDS011;41761;43.004;-0.066;2022-08-19T02:42:58;2.72;;;1.92;;
55833;SDS011;41761;43.004;-0.066;2022-08-19T02:45:25;5.68;;;2.40;;
55833;SDS011;41761;43.004;-0.066;2022-08-19T02:47:51;4.10;;;1.85;;
55833;SDS011;41761;43.004;-0.066;2022-08-19T02:50:17;1.98;;;1.77;;
55833;SDS011;41761;43.004;-0.066;2022-08-19T02:52:44;13.73;;;2.00;;
55833;SDS011;41761;43.004;-0.066;2022-08-19T02:55:10;4.20;;;2.20;;
55833;SDS011;41761;43.004;-0.066;2022-08-19T02:57:36;3.13;;;2.10;;
55833;SDS011;41761;43.004;-0.066;2022-08-19T03:00:05;2.85;;;1.83;;
55833;SDS011;41761;43.004;-0.066;2022-08-19T03:02:33;6.88;;;2.42;;
55833;SDS011;41761;43.004;-0.066;2022-08-19T03:04:59;4.30;;;2.45;;
55833;SDS011;41761;43.004;-0.066;2022-08-19T03:07:26;3.30;;;2.13;;
55833;SDS011;41761;43.004;-0.066;2022-08-19T03:09:52;10.52;;;2.40;;
55833;SDS011;41761;43.004;-0.066;2022-08-19T03:12:18;7.47;;;2.28;;
55833;SDS011;41761;43.004;-0.066;2022-08-19T03:14:44;5.38;;;2.60;;
55833;SDS011;41761;43.004;-0.066;2022-08-19T03:17:11;6.45;;;2.60;;
55833;SDS011;41761;43.004;-0.066;2022-08-19T03:19:38;6.68;;;2.63;;
55833;SDS011;41761;43.004;-0.066;2022-08-19T03:22:04;9.25;;;2.88;;
55833;SDS011;41761;43.004;-0.066;2022-08-19T03:24:30;8.02;;;2.72;;
55833;SDS011;41761;43.004;-0.066;2022-08-19T03:26:56;6.10;;;2.53;;
55833;SDS011;41761;43.004;-0.066;2022-08-19T03:29:24;4.25;;;2.03;;
55833;SDS011;41761;43.004;-0.066;2022-08-19T03:31:50;6.28;;;2.65;;
55833;SDS011;41761;43.004;-0.066;2022-08-19T03:34:26;7.35;;;2.20;;
55833;SDS011;41761;43.004;-0.066;2022-08-19T03:36:53;10.30;;;2.65;;
55833;SDS011;41761;43.004;-0.066;2022-08-19T03:39:20;3.97;;;2.20;;
55833;SDS011;41761;43.004;-0.066;2022-08-19T03:41:47;2.33;;;1.60;;
55833;SDS011;41761;43.004;-0.066;2022-08-19T03:44:16;2.67;;;2.20;;
55833;SDS011;41761;43.004;-0.066;2022-08-19T03:46:43;2.03;;;1.85;;
55833;SDS011;41761;43.004;-0.066;2022-08-19T03:49:09;2.38;;;1.98;;
55833;SDS011;41761;43.004;-0.066;2022-08-19T03:51:36;5.63;;;2.13;;
55833;SDS011;41761;43.004;-0.066;2022-08-19T03:54:04;2.10;;;2.00;;
55833;SDS011;41761;43.004;-0.066;2022-08-19T03:56:30;8.73;;;2.38;;
55833;SDS011;41761;43.004;-0.066;2022-08-19T03:58:57;7.32;;;2.03;;
55833;SDS011;41761;43.004;-0.066;2022-08-19T04:01:26;4.90;;;2.47;;
55833;SDS011;41761;43.004;-0.066;2022-08-19T04:03:52;7.50;;;2.30;;
55833;SDS011;41761;43.004;-0.066;2022-08-19T04:06:20;5.70;;;2.45;;
55833;SDS011;41761;43.004;-0.066;2022-08-19T04:08:47;3.22;;;2.60;;
55833;SDS011;41761;43.004;-0.066;2022-08-19T04:11:15;5.07;;;2.65;;
55833;SDS011;41761;43.004;-0.066;2022-08-19T04:13:41;3.35;;;2.20;;
55833;SDS011;41761;43.004;-0.066;2022-08-19T04:16:10;3.85;;;2.50;;
55833;SDS011;41761;43.004;-0.066;2022-08-19T04:18:37;7.60;;;2.70;;
55833;SDS011;41761;43.004;-0.066;2022-08-19T04:21:03;6.13;;;2.30;;
55833;SDS011;41761;43.004;-0.066;2022-08-19T04:23:30;10.00;;;2.05;;
55833;SDS011;41761;43.004;-0.066;2022-08-19T04:25:56;4.97;;;2.42;;
55833;SDS011;41761;43.004;-0.066;2022-08-19T04:28:25;10.68;;;2.40;;
55833;SDS011;41761;43.004;-0.066;2022-08-19T04:30:53;4.65;;;2.67;;
55833;SDS011;41761;43.004;-0.066;2022-08-19T04:33:20;4.65;;;2.85;;
55833;SDS011;41761;43.004;-0.066;2022-08-19T04:35:48;6.18;;;2.63;;
55833;SDS011;41761;43.004;-0.066;2022-08-19T04:38:15;4.38;;;2.58;;
55833;SDS011;41761;43.004;-0.066;2022-08-19T04:40:45;10.23;;;2.92;;
55833;SDS011;41761;43.004;-0.066;2022-08-19T04:43:29;5.32;;;2.85;;
55833;SDS011;41761;43.004;-0.066;2022-08-19T04:45:55;3.33;;;2.20;;
55833;SDS011;41761;43.004;-0.066;2022-08-19T04:48:22;11.30;;;3.20;;
55833;SDS011;41761;43.004;-0.066;2022-08-19T04:50:54;7.78;;;2.53;;
55833;SDS011;41761;43.004;-0.066;2022-08-19T04:53:28;7.47;;;2.67;;
55833;SDS011;41761;43.004;-0.066;2022-08-19T04:55:55;8.07;;;3.15;;
55833;SDS011;41761;43.004;-0.066;2022-08-19T04:58:22;3.47;;;2.13;;
55833;SDS011;41761;43.004;-0.066;2022-08-19T05:00:48;8.45;;;2.75;;
55833;SDS011;41761;43.004;-0.066;2022-08-19T05:03:14;6.35;;;3.08;;
55833;SDS011;41761;43.004;-0.066;2022-08-19T05:05:42;5.60;;;2.83;;
55833;SDS011;41761;43.004;-0.066;2022-08-19T05:08:08;12.90;;;3.25;;
55833;SDS011;41761;43.004;-0.066;2022-08-19T05:10:35;5.57;;;3.03;;
55833;SDS011;41761;43.004;-0.066;2022-08-19T05:13:02;5.35;;;2.75;;
55833;SDS011;41761;43.004;-0.066;2022-08-19T05:15:28;5.95;;;3.05;;
55833;SDS011;41761;43.004;-0.066;2022-08-19T05:17:54;3.15;;;2.88;;
55833;SDS011;41761;43.004;-0.066;2022-08-19T05:20:39;6.95;;;3.22;;
55833;SDS011;41761;43.004;-0.066;2022-08-19T05:23:24;8.32;;;3.30;;
55833;SDS011;41761;43.004;-0.066;2022-08-19T05:25:50;15.00;;;3.22;;
55833;SDS011;41761;43.004;-0.066;2022-08-19T05:28:17;8.80;;;3.00;;
55833;SDS011;41761;43.004;-0.066;2022-08-19T05:30:44;4.00;;;3.03;;
55833;SDS011;41761;43.004;-0.066;2022-08-19T05:33:10;4.80;;;3.35;;
55833;SDS011;41761;43.004;-0.066;2022-08-19T05:35:40;8.32;;;3.17;;
55833;SDS011;41761;43.004;-0.066;2022-08-19T05:38:07;6.78;;;3.42;;
55833;SDS011;41761;43.004;-0.066;2022-08-19T05:40:36;8.57;;;3.85;;
55833;SDS011;41761;43.004;-0.066;2022-08-19T05:43:04;11.38;;;3.05;;
55833;SDS011;41761;43.004;-0.066;2022-08-19T05:45:30;6.53;;;3.20;;
55833;SDS011;41761;43.004;-0.066;2022-08-19T05:47:57;8.95;;;3.47;;
55833;SDS011;41761;43.004;-0.066;2022-08-19T05:50:23;14.05;;;2.78;;
55833;SDS011;41761;43.004;-0.066;2022-08-19T05:52:51;9.75;;;4.13;;
55833;SDS011;41761;43.004;-0.066;2022-08-19T05:55:17;11.57;;;3.40;;
55833;SDS011;41761;43.004;-0.066;2022-08-19T05:57:45;16.73;;;3.08;;
55833;SDS011;41761;43.004;-0.066;2022-08-19T06:00:12;7.25;;;4.43;;
55833;SDS011;41761;43.004;-0.066;2022-08-19T06:02:39;11.18;;;3.58;;
55833;SDS011;41761;43.004;-0.066;2022-08-19T06:05:05;9.23;;;3.58;;
55833;SDS011;41761;43.004;-0.066;2022-08-19T06:07:32;8.70;;;3.45;;
55833;SDS011;41761;43.004;-0.066;2022-08-19T06:09:58;6.20;;;3.22;;
55833;SDS011;41761;43.004;-0.066;2022-08-19T06:12:24;7.75;;;3.58;;
55833;SDS011;41761;43.004;-0.066;2022-08-19T06:14:53;8.63;;;3.30;;
55833;SDS011;41761;43.004;-0.066;2022-08-19T06:17:20;9.80;;;3.30;;
55833;SDS011;41761;43.004;-0.066;2022-08-19T06:19:50;10.75;;;3.15;;
55833;SDS011;41761;43.004;-0.066;2022-08-19T06:22:17;10.07;;;3.53;;
55833;SDS011;41761;43.004;-0.066;2022-08-19T06:24:43;8.10;;;2.90;;
55833;SDS011;41761;43.004;-0.066;2022-08-19T06:27:09;4.65;;;3.08;;
55833;SDS011;41761;43.004;-0.066;2022-08-19T06:29:35;5.47;;;3.03;;
55833;SDS011;41761;43.004;-0.066;2022-08-19T06:32:02;7.18;;;2.90;;
55833;SDS011;41761;43.004;-0.066;2022-08-19T06:34:29;7.25;;;3.03;;
55833;SDS011;41761;43.004;-0.066;2022-08-19T06:36:56;6.10;;;2.42;;
55833;SDS011;41761;43.004;-0.066;2022-08-19T06:39:27;7.45;;;2.53;;
55833;SDS011;41761;43.004;-0.066;2022-08-19T06:41:55;4.15;;;2.70;;
55833;SDS011;41761;43.004;-0.066;2022-08-19T06:44:22;5.40;;;2.20;;
55833;SDS011;41761;43.004;-0.066;2022-08-19T06:46:48;5.88;;;2.70;;
55833;SDS011;41761;43.004;-0.066;2022-08-19T06:49:16;11.48;;;2.60;;
55833;SDS011;41761;43.004;-0.066;2022-08-19T06:51:43;5.30;;;2.70;;
55833;SDS011;41761;43.004;-0.066;2022-08-19T06:54:09;5.00;;;3.30;;
55833;SDS011;41761;43.004;-0.066;2022-08-19T06:56:36;6.32;;;2.60;;
55833;SDS011;41761;43.004;-0.066;2022-08-19T06:59:03;3.38;;;2.63;;
55833;SDS011;41761;43.004;-0.066;2022-08-19T07:01:30;3.10;;;2.90;;
55833;SDS011;41761;43.004;-0.066;2022-08-19T07:03:56;5.65;;;2.95;;
55833;SDS011;41761;43.004;-0.066;2022-08-19T07:06:22;4.32;;;3.10;;
55833;SDS011;41761;43.004;-0.066;2022-08-19T07:08:48;11.80;;;3.15;;
55833;SDS011;41761;43.004;-0.066;2022-08-19T07:11:16;6.00;;;3.03;;
55833;SDS011;41761;43.004;-0.066;2022-08-19T07:13:46;5.53;;;3.00;;
55833;SDS011;41761;43.004;-0.066;2022-08-19T07:16:14;4.35;;;3.05;;
55833;SDS011;41761;43.004;-0.066;2022-08-19T07:18:40;6.10;;;3.22;;
55833;SDS011;41761;43.004;-0.066;2022-08-19T07:21:08;5.57;;;2.92;;
55833;SDS011;41761;43.004;-0.066;2022-08-19T07:23:34;6.68;;;3.15;;
55833;SDS011;41761;43.004;-0.066;2022-08-19T07:26:05;5.97;;;2.67;;
55833;SDS011;41761;43.004;-0.066;2022-08-19T07:28:31;5.22;;;3.20;;
55833;SDS011;41761;43.004;-0.066;2022-08-19T07:30:58;8.00;;;3.08;;
55833;SDS011;41761;43.004;-0.066;2022-08-19T07:33:26;3.75;;;3.08;;
55833;SDS011;41761;43.004;-0.066;2022-08-19T07:35:55;7.70;;;3.60;;
55833;SDS011;41761;43.004;-0.066;2022-08-19T07:38:21;7.68;;;3.55;;
55833;SDS011;41761;43.004;-0.066;2022-08-19T07:40:47;6.00;;;3.33;;
55833;SDS011;41761;43.004;-0.066;2022-08-19T07:43:13;5.55;;;3.50;;
55833;SDS011;41761;43.004;-0.066;2022-08-19T07:45:40;6.95;;;2.67;;
55833;SDS011;41761;43.004;-0.066;2022-08-19T07:48:07;4.45;;;3.20;;
55833;SDS011;41761;43.004;-0.066;2022-08-19T07:50:33;6.90;;;2.88;;
55833;SDS011;41761;43.004;-0.066;2022-08-19T07:52:59;9.43;;;3.83;;
55833;SDS011;41761;43.004;-0.066;2022-08-19T07:55:25;6.85;;;3.70;;
55833;SDS011;41761;43.004;-0.066;2022-08-19T07:57:51;5.60;;;4.20;;
55833;SDS011;41761;43.004;-0.066;2022-08-19T08:00:18;7.90;;;3.58;;
55833;SDS011;41761;43.004;-0.066;2022-08-19T08:02:45;10.82;;;4.03;;
55833;SDS011;41761;43.004;-0.066;2022-08-19T08:05:11;5.13;;;3.50;;
55833;SDS011;41761;43.004;-0.066;2022-08-19T08:07:55;8.32;;;3.72;;
55833;SDS011;41761;43.004;-0.066;2022-08-19T08:10:40;8.23;;;4.40;;
55833;SDS011;41761;43.004;-0.066;2022-08-19T08:13:07;9.73;;;3.92;;
55833;SDS011;41761;43.004;-0.066;2022-08-19T08:15:33;7.53;;;3.90;;
55833;SDS011;41761;43.004;-0.066;2022-08-19T08:17:59;7.20;;;4.15;;
55833;SDS011;41761;43.004;-0.066;2022-08-19T08:20:25;6.32;;;3.45;;
55833;SDS011;41761;43.004;-0.066;2022-08-19T08:22:51;7.55;;;4.03;;
55833;SDS011;41761;43.004;-0.066;2022-08-19T08:25:36;13.65;;;4.95;;
55833;SDS011;41761;43.004;-0.066;2022-08-19T08:28:04;8.73;;;3.97;;
55833;SDS011;41761;43.004;-0.066;2022-08-19T08:30:35;8.17;;;3.87;;
55833;SDS011;41761;43.004;-0.066;2022-08-19T08:33:03;13.80;;;4.28;;
55833;SDS011;41761;43.004;-0.066;2022-08-19T08:35:30;7.00;;;3.58;;
55833;SDS011;41761;43.004;-0.066;2022-08-19T08:37:56;8.85;;;4.00;;
55833;SDS011;41761;43.004;-0.066;2022-08-19T08:42:54;14.23;;;5.18;;
55833;SDS011;41761;43.004;-0.066;2022-08-19T08:45:25;9.45;;;4.28;;
55833;SDS011;41761;43.004;-0.066;2022-08-19T08:47:52;6.43;;;4.25;;
55833;SDS011;41761;43.004;-0.066;2022-08-19T08:50:34;5.80;;;3.65;;
55833;SDS011;41761;43.004;-0.066;2022-08-19T08:53:05;6.78;;;4.85;;
55833;SDS011;41761;43.004;-0.066;2022-08-19T08:55:32;8.45;;;4.53;;
55833;SDS011;41761;43.004;-0.066;2022-08-19T08:58:03;10.57;;;3.85;;
55833;SDS011;41761;43.004;-0.066;2022-08-19T09:00:34;8.52;;;3.80;;
55833;SDS011;41761;43.004;-0.066;2022-08-19T09:03:01;6.90;;;4.05;;
55833;SDS011;41761;43.004;-0.066;2022-08-19T09:08:27;6.72;;;3.92;;
55833;SDS011;41761;43.004;-0.066;2022-08-19T09:10:58;8.43;;;4.03;;
55833;SDS011;41761;43.004;-0.066;2022-08-19T09:13:44;10.98;;;4.80;;
55833;SDS011;41761;43.004;-0.066;2022-08-19T09:16:17;5.25;;;4.40;;
55833;SDS011;41761;43.004;-0.066;2022-08-19T09:21:17;8.07;;;3.83;;
55833;SDS011;41761;43.004;-0.066;2022-08-19T09:23:43;11.68;;;4.43;;
55833;SDS011;41761;43.004;-0.066;2022-08-19T09:26:11;4.65;;;3.35;;
55833;SDS011;41761;43.004;-0.066;2022-08-19T09:28:41;9.85;;;4.03;;
55833;SDS011;41761;43.004;-0.066;2022-08-19T09:31:11;10.77;;;4.10;;
55833;SDS011;41761;43.004;-0.066;2022-08-19T09:33:37;8.98;;;3.42;;
55833;SDS011;41761;43.004;-0.066;2022-08-19T09:36:05;5.68;;;3.33;;
55833;SDS011;41761;43.004;-0.066;2022-08-19T09:38:32;6.10;;;3.30;;
55833;SDS011;41761;43.004;-0.066;2022-08-19T09:41:02;11.88;;;4.35;;
55833;SDS011;41761;43.004;-0.066;2022-08-19T09:43:29;8.82;;;4.10;;
55833;SDS011;41761;43.004;-0.066;2022-08-19T09:45:56;14.77;;;3.90;;
55833;SDS011;41761;43.004;-0.066;2022-08-19T09:48:22;5.70;;;3.47;;
55833;SDS011;41761;43.004;-0.066;2022-08-19T09:50:48;5.85;;;3.50;;
55833;SDS011;41761;43.004;-0.066;2022-08-19T09:53:15;8.48;;;3.97;;
55833;SDS011;41761;43.004;-0.066;2022-08-19T09:55:41;5.43;;;3.38;;
55833;SDS011;41761;43.004;-0.066;2022-08-19T09:58:08;6.22;;;3.85;;
55833;SDS011;41761;43.004;-0.066;2022-08-19T10:00:34;5.65;;;3.47;;
55833;SDS011;41761;43.004;-0.066;2022-08-19T10:03:00;7.03;;;4.00;;
55833;SDS011;41761;43.004;-0.066;2022-08-19T10:05:26;4.55;;;3.63;;
55833;SDS011;41761;43.004;-0.066;2022-08-19T10:08:11;8.93;;;4.13;;
55833;SDS011;41761;43.004;-0.066;2022-08-19T10:10:37;5.45;;;3.42;;
55833;SDS011;41761;43.004;-0.066;2022-08-19T10:13:03;8.95;;;3.42;;
55833;SDS011;41761;43.004;-0.066;2022-08-19T10:15:29;5.63;;;3.42;;
55833;SDS011;41761;43.004;-0.066;2022-08-19T10:17:55;5.05;;;3.53;;
55833;SDS011;41761;43.004;-0.066;2022-08-19T10:20:21;5.15;;;3.70;;
55833;SDS011;41761;43.004;-0.066;2022-08-19T10:22:48;5.57;;;3.63;;
55833;SDS011;41761;43.004;-0.066;2022-08-19T10:25:14;9.30;;;3.70;;
55833;SDS011;41761;43.004;-0.066;2022-08-19T10:27:42;12.38;;;3.53;;
55833;SDS011;41761;43.004;-0.066;2022-08-19T10:30:08;10.07;;;4.00;;
55833;SDS011;41761;43.004;-0.066;2022-08-19T10:32:34;10.48;;;3.75;;
55833;SDS011;41761;43.004;-0.066;2022-08-19T10:35:01;4.13;;;3.60;;
55833;SDS011;41761;43.004;-0.066;2022-08-19T10:37:28;7.28;;;3.47;;
55833;SDS011;41761;43.004;-0.066;2022-08-19T10:39:55;4.82;;;3.10;;
55833;SDS011;41761;43.004;-0.066;2022-08-19T10:42:22;6.75;;;3.70;;
55833;SDS011;41761;43.004;-0.066;2022-08-19T10:44:48;6.07;;;3.00;;
55833;SDS011;41761;43.004;-0.066;2022-08-19T10:47:18;5.35;;;3.00;;
55833;SDS011;41761;43.004;-0.066;2022-08-19T10:49:44;6.78;;;3.60;;
55833;SDS011;41761;43.004;-0.066;2022-08-19T10:52:29;9.85;;;3.05;;
55833;SDS011;41761;43.004;-0.066;2022-08-19T10:55:02;4.53;;;3.28;;
55833;SDS011;41761;43.004;-0.066;2022-08-19T10:57:47;6.53;;;3.20;;
55833;SDS011;41761;43.004;-0.066;2022-08-19T11:00:13;5.57;;;3.08;;
55833;SDS011;41761;43.004;-0.066;2022-08-19T11:02:40;7.45;;;3.60;;
55833;SDS011;41761;43.004;-0.066;2022-08-19T11:05:07;5.32;;;3.35;;
55833;SDS011;41761;43.004;-0.066;2022-08-19T11:07:36;4.82;;;3.35;;
55833;SDS011;41761;43.004;-0.066;2022-08-19T11:10:03;5.57;;;3.28;;
55833;SDS011;41761;43.004;-0.066;2022-08-19T11:12:29;3.55;;;3.05;;
55833;SDS011;41761;43.004;-0.066;2022-08-19T11:14:55;4.57;;;2.83;;
55833;SDS011;41761;43.004;-0.066;2022-08-19T11:17:21;4.10;;;3.15;;
55833;SDS011;41761;43.004;-0.066;2022-08-19T11:19:48;4.90;;;3.47;;
55833;SDS011;41761;43.004;-0.066;2022-08-19T11:22:15;4.65;;;2.72;;
55833;SDS011;41761;43.004;-0.066;2022-08-19T11:24:42;6.13;;;2.83;;
55833;SDS011;41761;43.004;-0.066;2022-08-19T11:27:08;3.50;;;2.55;;
55833;SDS011;41761;43.004;-0.066;2022-08-19T11:29:37;3.53;;;2.75;;
55833;SDS011;41761;43.004;-0.066;2022-08-19T11:32:04;4.45;;;2.88;;
55833;SDS011;41761;43.004;-0.066;2022-08-19T11:34:31;3.75;;;2.90;;
55833;SDS011;41761;43.004;-0.066;2022-08-19T11:36:57;5.82;;;3.20;;
55833;SDS011;41761;43.004;-0.066;2022-08-19T11:39:24;4.85;;;2.67;;
55833;SDS011;41761;43.004;-0.066;2022-08-19T11:41:51;10.13;;;2.90;;
55833;SDS011;41761;43.004;-0.066;2022-08-19T11:44:17;6.90;;;2.63;;
55833;SDS011;41761;43.004;-0.066;2022-08-19T11:46:44;5.07;;;2.88;;
55833;SDS011;41761;43.004;-0.066;2022-08-19T11:49:20;7.55;;;3.03;;
55833;SDS011;41761;43.004;-0.066;2022-08-19T11:51:46;3.05;;;2.63;;
55833;SDS011;41761;43.004;-0.066;2022-08-19T11:54:13;5.88;;;3.15;;
55833;SDS011;41761;43.004;-0.066;2022-08-19T11:56:41;4.95;;;2.75;;
55833;SDS011;41761;43.004;-0.066;2022-08-19T11:59:07;6.10;;;2.90;;
55833;SDS011;41761;43.004;-0.066;2022-08-19T12:01:34;5.40;;;3.00;;
55833;SDS011;41761;43.004;-0.066;2022-08-19T12:04:00;4.35;;;3.05;;
55833;SDS011;41761;43.004;-0.066;2022-08-19T12:06:29;3.63;;;2.92;;
55833;SDS011;41761;43.004;-0.066;2022-08-19T12:08:57;4.95;;;3.17;;
55833;SDS011;41761;43.004;-0.066;2022-08-19T12:11:23;4.20;;;2.90;;
55833;SDS011;41761;43.004;-0.066;2022-08-19T12:13:49;3.20;;;2.50;;
55833;SDS011;41761;43.004;-0.066;2022-08-19T12:16:17;4.65;;;3.30;;
55833;SDS011;41761;43.004;-0.066;2022-08-19T12:18:44;5.03;;;3.33;;
55833;SDS011;41761;43.004;-0.066;2022-08-19T12:21:13;3.15;;;2.85;;
55833;SDS011;41761;43.004;-0.066;2022-08-19T12:23:40;6.00;;;3.17;;
55833;SDS011;41761;43.004;-0.066;2022-08-19T12:26:08;4.25;;;2.70;;
55833;SDS011;41761;43.004;-0.066;2022-08-19T12:28:34;4.53;;;3.03;;
55833;SDS011;41761;43.004;-0.066;2022-08-19T12:31:00;3.17;;;2.72;;
55833;SDS011;41761;43.004;-0.066;2022-08-19T12:33:26;3.92;;;3.10;;
55833;SDS011;41761;43.004;-0.066;2022-08-19T12:35:53;7.40;;;3.38;;
55833;SDS011;41761;43.004;-0.066;2022-08-19T12:38:20;5.60;;;2.67;;
55833;SDS011;41761;43.004;-0.066;2022-08-19T12:40:49;3.70;;;3.08;;
55833;SDS011;41761;43.004;-0.066;2022-08-19T12:43:17;3.15;;;2.95;;
55833;SDS011;41761;43.004;-0.066;2022-08-19T12:45:44;4.13;;;2.47;;
55833;SDS011;41761;43.004;-0.066;2022-08-19T12:48:11;5.53;;;2.55;;
55833;SDS011;41761;43.004;-0.066;2022-08-19T12:50:41;4.15;;;2.92;;
55833;SDS011;41761;43.004;-0.066;2022-08-19T12:53:07;4.18;;;2.88;;
55833;SDS011;41761;43.004;-0.066;2022-08-19T12:55:33;4.68;;;2.67;;
55833;SDS011;41761;43.004;-0.066;2022-08-19T12:57:59;6.13;;;2.90;;
55833;SDS011;41761;43.004;-0.066;2022-08-19T13:00:28;14.68;;;3.42;;
55833;SDS011;41761;43.004;-0.066;2022-08-19T13:02:57;3.42;;;3.13;;
55833;SDS011;41761;43.004;-0.066;2022-08-19T13:05:25;6.15;;;2.92;;
55833;SDS011;41761;43.004;-0.066;2022-08-19T13:07:52;5.50;;;3.47;;
55833;SDS011;41761;43.004;-0.066;2022-08-19T13:10:22;8.02;;;3.03;;
55833;SDS011;41761;43.004;-0.066;2022-08-19T13:12:50;5.10;;;2.83;;
55833;SDS011;41761;43.004;-0.066;2022-08-19T13:15:17;5.40;;;2.90;;
55833;SDS011;41761;43.004;-0.066;2022-08-19T13:17:45;10.57;;;3.20;;
55833;SDS011;41761;43.004;-0.066;2022-08-19T13:20:13;8.50;;;3.03;;
55833;SDS011;41761;43.004;-0.066;2022-08-19T13:22:39;4.22;;;2.70;;
55833;SDS011;41761;43.004;-0.066;2022-08-19T13:25:05;5.82;;;2.83;;
55833;SDS011;41761;43.004;-0.066;2022-08-19T13:27:32;5.22;;;2.85;;
55833;SDS011;41761;43.004;-0.066;2022-08-19T13:29:58;4.43;;;2.60;;
55833;SDS011;41761;43.004;-0.066;2022-08-19T13:32:43;7.55;;;3.10;;
55833;SDS011;41761;43.004;-0.066;2022-08-19T13:35:29;8.48;;;3.10;;
55833;SDS011;41761;43.004;-0.066;2022-08-19T13:37:55;2.75;;;2.55;;
55833;SDS011;41761;43.004;-0.066;2022-08-19T13:40:22;10.63;;;2.65;;
55833;SDS011;41761;43.004;-0.066;2022-08-19T13:42:50;9.00;;;2.50;;
55833;SDS011;41761;43.004;-0.066;2022-08-19T13:45:18;5.03;;;2.90;;
55833;SDS011;41761;43.004;-0.066;2022-08-19T13:47:45;4.60;;;3.22;;
55833;SDS011;41761;43.004;-0.066;2022-08-19T13:50:13;2.88;;;2.58;;
55833;SDS011;41761;43.004;-0.066;2022-08-19T13:52:40;6.82;;;3.00;;
55833;SDS011;41761;43.004;-0.066;2022-08-19T13:55:06;2.80;;;2.20;;
55833;SDS011;41761;43.004;-0.066;2022-08-19T13:57:33;4.88;;;2.72;;
55833;SDS011;41761;43.004;-0.066;2022-08-19T14:00:03;3.90;;;2.72;;
55833;SDS011;41761;43.004;-0.066;2022-08-19T14:02:30;4.32;;;2.22;;
55833;SDS011;41761;43.004;-0.066;2022-08-19T14:04:59;5.88;;;2.40;;
55833;SDS011;41761;43.004;-0.066;2022-08-19T14:07:25;4.05;;;2.70;;
55833;SDS011;41761;43.004;-0.066;2022-08-19T14:09:51;7.03;;;2.70;;
55833;SDS011;41761;43.004;-0.066;2022-08-19T14:12:21;6.20;;;2.88;;
55833;SDS011;41761;43.004;-0.066;2022-08-19T14:14:47;6.50;;;3.15;;
55833;SDS011;41761;43.004;-0.066;2022-08-19T14:17:14;4.30;;;2.88;;
55833;SDS011;41761;43.004;-0.066;2022-08-19T14:19:40;6.50;;;3.35;;
55833;SDS011;41761;43.004;-0.066;2022-08-19T14:22:07;2.70;;;2.50;;
55833;SDS011;41761;43.004;-0.066;2022-08-19T14:24:33;6.05;;;2.95;;
55833;SDS011;41761;43.004;-0.066;2022-08-19T14:26:59;6.75;;;2.50;;
55833;SDS011;41761;43.004;-0.066;2022-08-19T14:29:25;4.55;;;3.00;;
55833;SDS011;41761;43.004;-0.066;2022-08-19T14:31:54;3.03;;;2.72;;
55833;SDS011;41761;43.004;-0.066;2022-08-19T14:34:21;2.80;;;2.15;;
55833;SDS011;41761;43.004;-0.066;2022-08-19T14:36:47;3.30;;;3.00;;
55833;SDS011;41761;43.004;-0.066;2022-08-19T14:39:13;2.88;;;2.35;;
55833;SDS011;41761;43.004;-0.066;2022-08-19T14:41:39;4.63;;;2.80;;
55833;SDS011;41761;43.004;-0.066;2022-08-19T14:44:06;3.67;;;2.70;;